Time;durP1;ratioP1;P1;durP2;ratioP2;P2;SDS_P1;SDS_P2;PMS_P1;PMS_P2;Temp;Humidity;BMP_temperature;BMP_pressure;BME280_temperature;BME280_humidity;BME280_pressure;Samples;Min_cycle;Max_cycle;Signal;HPM_P1;HPM_P2
2023/10/16 00:02:22;;;;;;;19.55;12.73;;;7.20;99.90;;;;;;5071611;28;20664;-76
2023/10/16 00:04:49;;;;;;;19.00;12.32;;;7.20;99.90;;;;;;5072736;28;20028;-76
2023/10/16 00:07:22;;;;;;;15.77;11.70;;;7.20;99.90;;;;;;5072705;28;20040;-78
2023/10/16 00:09:53;;;;;;;18.63;12.45;;;7.10;99.90;;;;;;5073302;28;20079;-78
2023/10/16 00:12:19;;;;;;;19.45;13.35;;;7.20;99.90;;;;;;5072296;28;20020;-78
2023/10/16 00:14:46;;;;;;;15.07;11.48;;;7.10;99.90;;;;;;5073023;28;20032;-78
2023/10/16 00:17:14;;;;;;;18.20;12.85;;;7.10;99.90;;;;;;5054280;28;20100;-77
2023/10/16 00:19:44;;;;;;;18.00;12.15;;;7.10;99.90;;;;;;5072874;28;20379;-77
2023/10/16 00:22:16;;;;;;;21.52;12.65;;;7.10;99.90;;;;;;5072547;28;20040;-77
2023/10/16 00:24:46;;;;;;;17.85;12.40;;;7.10;99.90;;;;;;5072820;28;20032;-77
2023/10/16 00:27:14;;;;;;;21.60;12.35;;;7.00;99.90;;;;;;5072226;28;20033;-77
2023/10/16 00:29:44;;;;;;;17.92;12.07;;;7.00;99.90;;;;;;5072380;28;20025;-77
2023/10/16 00:32:16;;;;;;;21.20;14.20;;;7.00;99.90;;;;;;5054112;28;20134;-78
2023/10/16 00:34:42;;;;;;;;;;;7.00;99.90;;;;;;5073150;28;20339;-78
2023/10/16 00:37:10;;;;;;;22.48;13.85;;;7.00;99.90;;;;;;5073500;28;19995;-78
2023/10/16 00:39:37;;;;;;;22.27;14.10;;;7.00;99.90;;;;;;5055861;28;20356;-78
2023/10/16 00:42:08;;;;;;;21.27;14.68;;;6.90;99.90;;;;;;5072085;28;20074;-78
2023/10/16 00:44:33;;;;;;;18.95;13.45;;;6.90;99.90;;;;;;5072337;28;20051;-78
2023/10/16 00:47:01;;;;;;;20.38;13.25;;;6.90;99.90;;;;;;5072131;28;20056;-80
2023/10/16 00:49:28;;;;;;;17.23;11.95;;;6.90;99.90;;;;;;5072428;28;20029;-78
2023/10/16 00:51:54;;;;;;;22.45;13.80;;;6.90;99.90;;;;;;5071995;28;20071;-78
2023/10/16 00:54:28;;;;;;;21.00;14.15;;;6.90;99.90;;;;;;5053884;28;20550;-78
2023/10/16 00:56:59;;;;;;;24.27;14.88;;;6.90;99.90;;;;;;5072763;28;20131;-77
2023/10/16 00:59:25;;;;;;;20.42;13.95;;;6.90;99.90;;;;;;5071383;28;20017;-77
2023/10/16 01:04:32;;;;;;;19.60;12.57;;;6.90;99.90;;;;;;5072016;28;20024;-77
2023/10/16 01:07:00;;;;;;;18.73;12.45;;;6.80;99.90;;;;;;5072131;28;20106;-77
2023/10/16 01:09:33;;;;;;;20.33;12.30;;;6.90;99.90;;;;;;5053976;28;20439;-76
2023/10/16 01:12:00;;;;;;;19.75;12.05;;;6.90;99.90;;;;;;5082595;28;20024;-77
2023/10/16 01:14:25;;;;;;;18.67;11.85;;;6.90;99.90;;;;;;5065179;28;20029;-77
2023/10/16 01:16:54;;;;;;;16.63;12.18;;;6.90;99.90;;;;;;5072048;28;20402;-76
2023/10/16 01:19:20;;;;;;;14.88;11.10;;;6.90;99.90;;;;;;5071496;28;20025;-76
2023/10/16 01:21:46;;;;;;;19.95;12.45;;;6.90;99.90;;;;;;5071909;28;20025;-78
2023/10/16 01:24:12;;;;;;;17.52;11.02;;;6.90;99.90;;;;;;5072057;28;20024;-77
2023/10/16 01:26:42;;;;;;;19.38;11.52;;;6.90;99.90;;;;;;5071944;28;20379;-78
2023/10/16 01:29:09;;;;;;;18.83;12.68;;;6.90;99.90;;;;;;5072133;28;20082;-78
2023/10/16 01:31:36;;;;;;;18.58;11.35;;;6.90;99.90;;;;;;5072557;28;20032;-77
2023/10/16 01:34:03;;;;;;;19.48;13.27;;;6.90;99.90;;;;;;5056130;28;20043;-77
2023/10/16 01:36:33;;;;;;;19.98;13.10;;;6.90;99.90;;;;;;5072908;28;20028;-78
2023/10/16 01:39:04;;;;;;;17.95;12.43;;;6.90;99.90;;;;;;5072568;28;20032;-78
2023/10/16 01:41:30;;;;;;;18.35;11.68;;;7.00;99.90;;;;;;5072572;28;20035;-77
2023/10/16 01:43:58;;;;;;;14.30;10.88;;;6.90;99.90;;;;;;5054869;28;20036;-78
2023/10/16 01:46:23;;;;;;;17.73;11.95;;;7.00;99.90;;;;;;5071019;28;20036;-79
2023/10/16 01:48:49;;;;;;;17.55;11.95;;;7.00;99.90;;;;;;5071459;28;20024;-78
2023/10/16 01:51:19;;;;;;;15.15;11.00;;;7.00;99.90;;;;;;5071316;28;20021;-78
2023/10/16 01:53:47;;;;;;;17.27;11.88;;;7.00;99.90;;;;;;5074385;28;20051;-78
2023/10/16 01:56:14;;;;;;;18.67;12.35;;;7.10;99.90;;;;;;5073188;28;20028;-78
2023/10/16 01:58:46;;;;;;;16.65;11.57;;;7.00;99.90;;;;;;5071214;28;20446;-79
2023/10/16 02:01:16;;;;;;;;;;;7.00;99.90;;;;;;5053010;28;20345;-77
2023/10/16 02:03:44;;;;;;;17.98;11.20;;;7.00;99.90;;;;;;5070886;28;19961;-77
2023/10/16 02:06:13;;;;;;;18.95;12.38;;;7.10;99.90;;;;;;5070467;28;20024;-77
2023/10/16 02:08:44;;;;;;;16.08;10.88;;;7.00;99.90;;;;;;5053170;28;20375;-77
2023/10/16 02:11:10;;;;;;;14.23;9.95;;;6.90;99.90;;;;;;5070014;28;20099;-77
2023/10/16 02:13:40;;;;;;;14.65;9.70;;;7.00;99.90;;;;;;5053310;28;20025;-77
2023/10/16 02:16:10;;;;;;;13.98;9.25;;;6.90;99.90;;;;;;5071441;28;20035;-80
2023/10/16 02:18:42;;;;;;;14.13;9.05;;;6.90;99.90;;;;;;5070636;28;20033;-77
2023/10/16 02:21:12;;;;;;;15.20;8.27;;;6.80;99.90;;;;;;5070124;28;20028;-80
2023/10/16 02:23:38;;;;;;;12.20;7.88;;;6.80;99.90;;;;;;5070485;28;20114;-77
2023/10/16 02:26:06;;;;;;;12.57;8.65;;;6.80;99.90;;;;;;5070827;28;20112;-77
2023/10/16 02:28:40;;;;;;;16.30;8.63;;;6.80;99.90;;;;;;5070486;28;20035;-77
2023/10/16 02:31:15;;;;;;;13.45;8.95;;;6.70;99.90;;;;;;5072762;28;20024;-80
2023/10/16 02:33:46;;;;;;;12.27;8.02;;;6.70;99.90;;;;;;5071195;28;20036;-77
2023/10/16 02:36:15;;;;;;;14.95;8.85;;;6.60;99.90;;;;;;5071651;28;20451;-76
2023/10/16 02:38:44;;;;;;;10.93;8.55;;;6.60;99.90;;;;;;5070883;28;20170;-77
2023/10/16 02:41:10;;;;;;;12.75;8.38;;;6.60;99.90;;;;;;5070332;28;20022;-79
2023/10/16 02:43:45;;;;;;;16.05;8.63;;;6.60;99.90;;;;;;5070890;28;20028;-77
2023/10/16 02:46:11;;;;;;;13.57;8.10;;;6.60;99.90;;;;;;5070917;28;20051;-77
2023/10/16 02:48:43;;;;;;;14.43;8.57;;;6.50;99.90;;;;;;5070967;28;20025;-76
2023/10/16 02:51:10;;;;;;;13.15;8.18;;;6.50;99.90;;;;;;5070673;28;20126;-79
2023/10/16 02:53:37;;;;;;;13.55;8.60;;;6.50;99.90;;;;;;5052875;28;20094;-76
2023/10/16 02:58:46;;;;;;;16.90;9.55;;;6.40;99.90;;;;;;5071152;28;20024;-77
2023/10/16 03:01:19;;;;;;;16.45;9.80;;;6.40;99.90;;;;;;5052358;28;20039;-77
2023/10/16 03:03:46;;;;;;;15.30;9.45;;;6.30;99.90;;;;;;5070956;28;20125;-77
2023/10/16 03:06:13;;;;;;;11.95;8.35;;;6.30;99.90;;;;;;5069841;28;20059;-78
2023/10/16 03:08:39;;;;;;;13.63;7.88;;;6.30;99.90;;;;;;5054625;28;20033;-76
2023/10/16 03:11:06;;;;;;;13.65;8.10;;;6.20;99.90;;;;;;5074380;28;20530;-76
2023/10/16 03:13:36;;;;;;;9.98;7.35;;;6.20;99.90;;;;;;5055656;28;20101;-76
2023/10/16 03:16:36;;;;;;;14.95;8.70;;;6.20;99.90;;;;;;5073831;28;20048;-78
2023/10/16 03:19:16;;;;;;;15.98;8.73;;;6.20;99.90;;;;;;5073411;28;20067;-76
2023/10/16 03:21:45;;;;;;;14.68;8.82;;;6.20;99.90;;;;;;5073769;28;20133;-77
2023/10/16 03:24:12;;;;;;;14.00;8.35;;;6.20;99.90;;;;;;5073369;28;20094;-81
2023/10/16 03:26:42;;;;;;;14.18;9.02;;;6.20;99.90;;;;;;5073744;28;20029;-76
2023/10/16 03:29:08;;;;;;;15.30;8.88;;;6.20;99.90;;;;;;5073902;28;20055;-76
2023/10/16 03:31:36;;;;;;;13.00;8.38;;;6.20;99.90;;;;;;5055140;28;20062;-77
2023/10/16 03:34:02;;;;;;;12.43;8.77;;;6.20;99.90;;;;;;5073991;28;20032;-78
2023/10/16 03:36:28;;;;;;;12.10;8.15;;;6.10;99.90;;;;;;5073198;28;20043;-77
2023/10/16 03:38:57;;;;;;;14.02;8.07;;;6.10;99.90;;;;;;5074176;28;20408;-77
2023/10/16 03:43:56;;;;;;;13.57;8.77;;;6.10;99.90;;;;;;5084761;28;20029;-77
2023/10/16 03:46:29;;;;;;;11.90;8.48;;;6.10;99.90;;;;;;5074883;28;20040;-77
2023/10/16 03:48:55;;;;;;;14.15;9.05;;;6.10;99.90;;;;;;5073587;28;20064;-77
2023/10/16 03:51:21;;;;;;;12.00;8.63;;;6.10;99.90;;;;;;5073751;28;20040;-77
2023/10/16 03:53:50;;;;;;;17.65;8.68;;;6.00;99.90;;;;;;5074552;28;20037;-78
2023/10/16 03:56:17;;;;;;;11.43;7.60;;;6.00;99.90;;;;;;5073218;28;20109;-78
2023/10/16 03:58:44;;;;;;;12.68;8.73;;;6.00;99.90;;;;;;5073544;28;20031;-77
2023/10/16 04:01:11;;;;;;;15.07;9.20;;;6.00;99.90;;;;;;5073100;28;20041;-77
2023/10/16 04:03:47;;;;;;;11.60;8.32;;;6.00;99.90;;;;;;5073719;28;20041;-77
2023/10/16 04:06:18;;;;;;;12.85;8.43;;;5.90;99.90;;;;;;5073902;28;20123;-80
2023/10/16 04:08:48;;;;;;;10.90;8.13;;;6.00;99.90;;;;;;5074356;28;20029;-77
2023/10/16 04:11:14;;;;;;;11.50;8.82;;;6.00;99.90;;;;;;5073978;28;20344;-79
2023/10/16 04:13:49;;;;;;;12.57;8.57;;;6.00;99.90;;;;;;5055715;28;20033;-77
2023/10/16 04:18:51;;;;;;;16.33;9.60;;;6.00;99.90;;;;;;5072789;28;20055;-76
2023/10/16 04:26:56;;;;;;;15.55;9.00;;;6.00;99.90;;;;;;5072917;28;20032;-79
2023/10/16 04:29:25;;;;;;;17.98;9.60;;;6.00;99.90;;;;;;5072304;28;20502;-78
2023/10/16 04:36:54;;;;;;;11.57;8.15;;;6.00;99.90;;;;;;5073132;28;20074;-77
2023/10/16 04:47:47;;;;;;;12.25;8.05;;;6.10;99.90;;;;;;5072844;28;20036;-77
2023/10/16 04:50:14;;;;;;;12.73;8.82;;;6.20;99.90;;;;;;5072516;28;20016;-76
2023/10/16 05:11:32;;;;;;;10.15;7.65;;;6.30;99.90;;;;;;5071294;28;20115;-77
2023/10/16 05:14:19;;;;;;;10.75;7.53;;;6.30;99.90;;;;;;5073439;28;20036;-77
2023/10/16 05:22:03;;;;;;;8.77;6.38;;;6.40;99.90;;;;;;5071964;28;20078;-77
2023/10/16 06:14:14;;;;;;;10.07;6.15;;;6.30;99.90;;;;;;5072057;28;20414;-78
2023/10/16 06:16:45;;;;;;;9.32;6.68;;;6.30;99.90;;;;;;5052790;28;20028;-78
2023/10/16 06:19:16;;;;;;;7.50;5.53;;;6.30;99.90;;;;;;5070940;28;20047;-77
2023/10/16 06:21:46;;;;;;;12.05;6.72;;;6.20;99.90;;;;;;5070440;28;20111;-77
2023/10/16 06:24:25;;;;;;;10.20;7.40;;;6.20;99.90;;;;;;5070847;28;20115;-77
2023/10/16 06:27:03;;;;;;;14.50;7.60;;;6.20;99.90;;;;;;5070982;28;20050;-77
2023/10/16 06:29:34;;;;;;;7.72;6.20;;;6.10;99.90;;;;;;5071295;28;20040;-77
2023/10/16 06:32:18;;;;;;;11.98;7.30;;;6.10;99.90;;;;;;5071050;28;20028;-77
2023/10/16 06:34:57;;;;;;;9.40;6.43;;;6.10;99.90;;;;;;5070448;28;20025;-77
2023/10/16 06:37:24;;;;;;;7.72;6.68;;;6.10;99.90;;;;;;5070245;28;20474;-80
2023/10/16 06:39:54;;;;;;;13.38;7.10;;;6.10;99.90;;;;;;5052695;28;20033;-78
2023/10/16 06:42:21;;;;;;;8.32;7.13;;;6.00;99.90;;;;;;5069474;28;20364;-78
2023/10/16 06:44:53;;;;;;;8.82;6.60;;;6.00;99.90;;;;;;5070224;28;20024;-77
2023/10/16 06:48:14;;;;;;;11.43;8.52;;;6.00;99.90;;;;;;5070178;28;20024;-77
2023/10/16 06:52:52;;;;;;;10.63;6.57;;;6.00;99.90;;;;;;5070387;28;20281;-77
2023/10/16 06:55:21;;;;;;;17.45;10.38;;;5.90;99.90;;;;;;5070910;28;20029;-77
2023/10/16 06:57:47;;;;;;;21.58;11.77;;;5.90;99.90;;;;;;5051808;28;20403;-77
2023/10/16 07:02:54;;;;;;;15.77;9.05;;;5.90;99.90;;;;;;5072220;28;20509;-77
2023/10/16 07:05:42;;;;;;;12.32;7.90;;;5.90;99.90;;;;;;5071235;28;20036;-77
2023/10/16 07:08:16;;;;;;;15.05;8.30;;;5.90;99.90;;;;;;5071693;28;20157;-77
2023/10/16 07:10:49;;;;;;;10.02;8.07;;;5.80;99.90;;;;;;5069955;28;20031;-78
2023/10/16 07:13:27;;;;;;;;;;;5.80;99.90;;;;;;5070388;28;20032;-77
2023/10/16 07:15:56;;;;;;;9.38;6.72;;;5.80;99.90;;;;;;5071585;28;20401;-76
2023/10/16 07:18:25;;;;;;;10.70;7.22;;;5.90;99.90;;;;;;5070034;28;20095;-76
2023/10/16 07:23:34;;;;;;;9.00;6.20;;;5.80;99.90;;;;;;5070578;28;20125;-79
2023/10/16 07:26:04;;;;;;;11.10;6.97;;;5.90;99.90;;;;;;5070292;28;20051;-76
2023/10/16 07:28:31;;;;;;;16.65;7.75;;;5.90;99.90;;;;;;5070024;28;20036;-77
2023/10/16 07:30:59;;;;;;;12.48;6.80;;;5.90;99.90;;;;;;5070203;28;20117;-76
2023/10/16 07:33:26;;;;;;;10.77;6.50;;;5.90;99.90;;;;;;5070521;28;20024;-78
2023/10/16 07:35:54;;;;;;;11.10;7.00;;;5.90;99.90;;;;;;5070090;28;20416;-77
2023/10/16 07:38:22;;;;;;;12.73;7.60;;;5.90;99.90;;;;;;5069999;28;20033;-76
2023/10/16 07:40:56;;;;;;;13.88;7.07;;;5.90;99.90;;;;;;5069902;28;20020;-75
2023/10/16 07:43:28;;;;;;;13.45;7.32;;;5.90;99.90;;;;;;5069679;28;20025;-76
2023/10/16 07:46:06;;;;;;;12.63;7.03;;;5.90;99.90;;;;;;5052035;28;20041;-76
2023/10/16 07:48:32;;;;;;;15.90;7.72;;;6.00;99.90;;;;;;5069680;28;20016;-77
2023/10/16 07:51:01;;;;;;;16.35;7.40;;;6.00;99.90;;;;;;5069753;28;20036;-78
2023/10/16 07:53:28;;;;;;;18.98;7.38;;;6.10;99.90;;;;;;5069948;28;20094;-80
2023/10/16 07:55:55;;;;;;;17.80;8.50;;;6.10;99.90;;;;;;5072677;28;20020;-77
2023/10/16 07:58:24;;;;;;;17.50;8.45;;;6.20;99.90;;;;;;5073441;28;20028;-79
2023/10/16 08:03:37;;;;;;;16.63;7.68;;;6.30;99.90;;;;;;5072695;28;20151;-77
2023/10/16 08:06:06;;;;;;;15.55;7.88;;;6.30;99.90;;;;;;5073340;28;20063;-77
2023/10/16 08:08:38;;;;;;;13.88;7.22;;;6.40;99.90;;;;;;5072476;28;20144;-77
2023/10/16 08:11:12;;;;;;;13.13;6.90;;;6.50;99.90;;;;;;5055928;28;20029;-77
2023/10/16 08:13:46;;;;;;;11.88;6.60;;;6.60;99.90;;;;;;5072350;28;20490;-77
2023/10/16 08:16:21;;;;;;;12.23;5.97;;;6.70;99.90;;;;;;5072957;28;20029;-79
2023/10/16 08:18:50;;;;;;;10.98;5.93;;;6.80;99.90;;;;;;5072255;28;20029;-79
2023/10/16 08:21:25;;;;;;;13.10;6.93;;;6.80;99.90;;;;;;5072972;28;20104;-79
2023/10/16 08:23:51;;;;;;;22.27;14.88;;;6.90;99.90;;;;;;5072131;28;20024;-79
2023/10/16 08:26:42;;;;;;;20.38;11.23;;;7.00;99.90;;;;;;5073001;28;20107;-80
2023/10/16 08:29:11;;;;;;;14.05;7.78;;;7.10;99.90;;;;;;5071268;28;20379;-79
2023/10/16 08:31:41;;;;;;;18.30;10.33;;;7.20;99.90;;;;;;5053943;28;20082;-79
2023/10/16 08:34:10;;;;;;;15.93;10.05;;;7.40;99.90;;;;;;5072636;28;20040;-79
2023/10/16 08:36:36;;;;;;;17.88;11.75;;;7.40;99.90;;;;;;5055435;28;20031;-79
2023/10/16 08:39:17;;;;;;;15.98;10.85;;;7.50;99.90;;;;;;5089801;28;20088;-79
2023/10/16 08:41:44;;;;;;;15.63;9.25;;;7.60;99.90;;;;;;5069907;28;20035;-79
2023/10/16 08:44:21;;;;;;;13.73;8.93;;;7.70;99.90;;;;;;5060166;28;20035;-79
2023/10/16 08:49:25;;;;;;;7.90;5.43;;;7.90;99.90;;;;;;5072111;28;20024;-79
2023/10/16 08:51:55;;;;;;;6.93;5.68;;;8.10;99.90;;;;;;5071674;28;20027;-79
2023/10/16 08:55:00;;;;;;;9.63;5.55;;;8.30;99.90;;;;;;5072553;28;20045;-79
2023/10/16 08:57:10;;;;;;;8.27;4.65;;;8.40;99.90;;;;;;5071042;28;20037;-80
2023/10/16 08:59:37;;;;;;;9.57;4.68;;;8.50;99.90;;;;;;5071668;28;20513;-81
2023/10/16 09:02:11;;;;;;;7.93;4.15;;;8.70;99.90;;;;;;5072119;28;20032;-80
2023/10/16 09:04:38;;;;;;;8.70;3.92;;;8.70;99.90;;;;;;5072225;28;20047;-81
2023/10/16 09:07:04;;;;;;;9.60;4.30;;;8.70;99.90;;;;;;5072846;28;20051;-79
2023/10/16 09:09:31;;;;;;;5.93;3.50;;;8.80;99.90;;;;;;5072699;28;20432;-79
2023/10/16 09:12:04;;;;;;;10.02;4.88;;;8.80;99.90;;;;;;5071910;28;20076;-80
2023/10/16 09:14:30;;;;;;;8.00;4.07;;;8.80;99.90;;;;;;5071873;28;20067;-80
2023/10/16 09:16:59;;;;;;;6.30;3.95;;;8.90;99.90;;;;;;5071295;28;20064;-80
2023/10/16 09:19:34;;;;;;;11.10;6.35;;;9.00;99.90;;;;;;5071702;28;20025;-80
2023/10/16 09:22:08;;;;;;;5.97;3.47;;;9.10;99.90;;;;;;5071174;28;20078;-80
2023/10/16 09:24:35;;;;;;;5.82;3.15;;;9.20;99.90;;;;;;5071431;28;20112;-82
2023/10/16 09:27:17;;;;;;;8.20;2.53;;;9.40;99.90;;;;;;5072254;28;20516;-79
2023/10/16 09:29:55;;;;;;;5.07;2.05;;;9.40;99.90;;;;;;5071345;28;20028;-80
2023/10/16 09:32:39;;;;;;;3.05;2.42;;;9.50;99.90;;;;;;5054318;28;20147;-80
2023/10/16 09:35:11;;;;;;;7.10;2.10;;;9.60;99.90;;;;;;5054590;28;20097;-79
2023/10/16 09:37:37;;;;;;;10.18;2.80;;;9.70;99.90;;;;;;5072526;28;20063;-81
2023/10/16 09:40:35;;;;;;;4.57;2.17;;;9.70;99.90;;;;;;5072264;28;20020;-80
2023/10/16 09:43:05;;;;;;;5.45;2.00;;;9.70;99.90;;;;;;5070350;28;20043;-79
2023/10/16 09:45:33;;;;;;;6.15;1.80;;;9.80;99.90;;;;;;5071697;28;20036;-78
2023/10/16 09:48:08;;;;;;;4.28;1.70;;;9.80;99.90;;;;;;5070507;28;20042;-79
2023/10/16 09:50:38;;;;;;;8.43;2.45;;;9.80;99.90;;;;;;5071247;28;20025;-82
2023/10/16 09:53:14;;;;;;;4.55;1.55;;;9.80;99.90;;;;;;5071492;28;20044;-80
2023/10/16 09:55:48;;;;;;;4.53;1.45;;;9.90;99.90;;;;;;5070713;28;20028;-80
2023/10/16 09:58:15;;;;;;;4.97;1.67;;;9.90;99.90;;;;;;5072520;28;20035;-79
2023/10/16 10:00:49;;;;;;;3.97;1.48;;;10.00;99.90;;;;;;5072941;28;20020;-79
2023/10/16 10:03:17;;;;;;;3.50;1.48;;;9.90;99.90;;;;;;5054334;28;20111;-79
2023/10/16 10:08:51;;;;;;;3.80;1.50;;;10.00;99.90;;;;;;5072945;28;20036;-79
2023/10/16 10:14:40;;;;;;;4.88;1.45;;;10.00;99.90;;;;;;5070756;28;20097;-80
2023/10/16 10:17:10;;;;;;;1.95;1.00;;;10.00;99.90;;;;;;5070248;28;20138;-79
2023/10/16 10:19:41;;;;;;;5.32;1.15;;;10.00;99.90;;;;;;5070783;28;20024;-77
2023/10/16 10:22:17;;;;;;;4.55;0.88;;;10.00;99.90;;;;;;5070737;28;20356;-78
2023/10/16 10:25:16;;;;;;;2.50;0.90;;;10.00;99.90;;;;;;5070111;28;20051;-79
2023/10/16 10:27:43;;;;;;;3.85;0.98;;;10.10;99.90;;;;;;5052171;28;20471;-79
2023/10/16 10:30:28;;;;;;;2.17;1.00;;;10.10;99.90;;;;;;5070591;28;20029;-79
2023/10/16 10:33:04;;;;;;;3.17;0.90;;;10.20;99.90;;;;;;5070573;28;20111;-79
2023/10/16 10:35:29;;;;;;;2.22;0.75;;;10.20;99.90;;;;;;5070584;28;20032;-80
2023/10/16 10:38:31;;;;;;;2.38;0.88;;;10.20;99.90;;;;;;5069996;28;20025;-80
2023/10/16 10:41:06;;;;;;;2.80;0.70;;;10.30;99.90;;;;;;4968886;28;20038;-81
2023/10/16 10:43:50;;;;;;;2.25;0.70;;;10.40;99.90;;;;;;5055505;28;20127;-80
2023/10/16 10:46:23;;;;;;;2.55;0.77;;;10.40;99.90;;;;;;5070405;28;20115;-79
2023/10/16 10:48:49;;;;;;;3.00;0.70;;;10.50;99.90;;;;;;5069785;28;20029;-79
2023/10/16 10:51:16;;;;;;;2.28;1.10;;;10.50;99.90;;;;;;5070181;28;20038;-78
2023/10/16 10:53:58;;;;;;;6.57;1.15;;;10.60;99.90;;;;;;5069213;28;20048;-78
2023/10/16 10:56:40;;;;;;;4.40;0.90;;;10.60;99.90;;;;;;5070353;28;20071;-78
2023/10/16 10:59:12;;;;;;;3.08;0.70;;;10.60;99.90;;;;;;5052327;28;20024;-78
2023/10/16 11:01:52;;;;;;;1.95;0.60;;;10.60;99.90;;;;;;5070322;28;20035;-78
2023/10/16 11:04:18;;;;;;;2.67;0.65;;;10.70;99.90;;;;;;5070650;28;20031;-78
2023/10/16 11:06:49;;;;;;;5.85;1.20;;;10.70;99.90;;;;;;5070196;28;20120;-79
2023/10/16 11:09:18;;;;;;;2.95;0.70;;;10.70;99.90;;;;;;5070857;28;20036;-78
2023/10/16 11:11:48;;;;;;;2.60;0.57;;;10.70;99.90;;;;;;5070376;28;20028;-79
2023/10/16 11:14:15;;;;;;;2.00;0.80;;;10.80;99.90;;;;;;5052056;28;20029;-77
2023/10/16 11:16:49;;;;;;;3.35;0.60;;;10.80;99.90;;;;;;5070497;28;20067;-82
2023/10/16 11:19:28;;;;;;;3.05;0.75;;;10.90;99.90;;;;;;5070689;28;20031;-79
2023/10/16 11:21:56;;;;;;;3.17;0.98;;;11.00;99.90;;;;;;5070019;28;20028;-81
2023/10/16 11:24:25;;;;;;;5.25;0.75;;;11.00;99.90;;;;;;5081214;28;20029;-81
2023/10/16 11:26:58;;;;;;;1.08;0.55;;;11.10;99.90;;;;;;5085907;28;20024;-79
2023/10/16 11:29:33;;;;;;;1.70;0.50;;;11.10;99.90;;;;;;5086485;28;20044;-79
2023/10/16 11:32:06;;;;;;;1.95;0.68;;;11.00;99.90;;;;;;5058807;28;20032;-79
2023/10/16 11:34:44;;;;;;;2.20;0.52;;;11.00;99.90;;;;;;5073391;28;20086;-79
2023/10/16 11:37:12;;;;;;;1.35;0.77;;;11.10;99.90;;;;;;5073728;28;20320;-80
2023/10/16 11:39:39;;;;;;;2.78;0.85;;;11.10;99.90;;;;;;5073668;28;20478;-79
2023/10/16 11:42:05;;;;;;;1.00;0.40;;;11.20;99.90;;;;;;5072895;28;20024;-78
2023/10/16 11:44:35;;;;;;;2.42;0.50;;;11.30;99.90;;;;;;5073176;28;20045;-79
2023/10/16 11:47:02;;;;;;;4.35;1.02;;;11.20;99.90;;;;;;5055660;28;20036;-79
2023/10/16 11:49:46;;;;;;;1.63;0.50;;;11.30;99.90;;;;;;5073108;28;20041;-79
2023/10/16 11:52:19;;;;;;;2.35;0.55;;;11.30;99.90;;;;;;5072555;28;20047;-80
2023/10/16 11:54:53;;;;;;;2.33;0.55;;;11.40;99.90;;;;;;5072430;28;20024;-81
2023/10/16 11:57:23;;;;;;;5.28;0.77;;;11.60;99.90;;;;;;5072885;28;20032;-78
2023/10/16 11:59:51;;;;;;;2.92;0.70;;;11.60;99.90;;;;;;5072827;28;20443;-79
2023/10/16 12:02:23;;;;;;;2.38;0.50;;;11.50;99.90;;;;;;5073154;28;20055;-80
2023/10/16 12:04:49;;;;;;;2.20;0.70;;;11.50;99.90;;;;;;5055606;28;20376;-80
2023/10/16 12:07:15;;;;;;;1.83;0.80;;;11.40;99.90;;;;;;5073074;28;20265;-80
2023/10/16 12:09:52;;;;;;;3.72;0.98;;;11.30;99.90;;;;;;5054906;28;20028;-79
2023/10/16 12:12:22;;;;;;;3.67;0.60;;;11.20;99.90;;;;;;5073315;28;20510;-78
2023/10/16 12:14:49;;;;;;;5.70;1.10;;;11.10;99.90;;;;;;5072431;28;20028;-80
2023/10/16 12:17:24;;;;;;;3.22;0.70;;;11.10;99.90;;;;;;5073571;28;20047;-79
2023/10/16 12:19:52;;;;;;;4.00;0.77;;;11.10;99.90;;;;;;5072698;28;20024;-80
2023/10/16 12:22:20;;;;;;;3.58;0.75;;;11.10;99.90;;;;;;5072957;28;20060;-79
2023/10/16 12:24:47;;;;;;;3.13;0.52;;;11.10;99.90;;;;;;5055000;28;20115;-80
2023/10/16 12:27:15;;;;;;;2.55;0.75;;;11.10;99.90;;;;;;5072962;28;20061;-81
2023/10/16 12:29:42;;;;;;;7.10;0.65;;;11.10;99.90;;;;;;5073177;28;20044;-80
2023/10/16 12:32:07;;;;;;;1.77;0.60;;;11.20;99.90;;;;;;5072100;28;20028;-81
2023/10/16 12:34:34;;;;;;;2.28;0.77;;;11.30;99.90;;;;;;5072679;28;20536;-80
2023/10/16 12:37:09;;;;;;;1.85;0.65;;;11.30;99.90;;;;;;5072157;28;20174;-81
2023/10/16 12:39:45;;;;;;;2.80;0.65;;;11.40;99.90;;;;;;5073546;28;20120;-80
2023/10/16 12:42:10;;;;;;;4.82;0.85;;;11.50;99.90;;;;;;5071522;28;20025;-79
2023/10/16 12:44:36;;;;;;;2.22;0.73;;;11.60;99.90;;;;;;5072622;28;20117;-81
2023/10/16 12:47:02;;;;;;;2.95;0.57;;;11.70;99.90;;;;;;5071909;28;20470;-80
2023/10/16 12:49:28;;;;;;;3.33;0.75;;;11.80;99.90;;;;;;5072710;28;20020;-81
2023/10/16 12:51:54;;;;;;;3.08;0.55;;;11.80;99.90;;;;;;5072077;28;20028;-82
2023/10/16 12:54:24;;;;;;;2.35;0.75;;;11.90;99.90;;;;;;5072663;28;20063;-81
2023/10/16 12:56:52;;;;;;;2.35;1.05;;;11.90;99.90;;;;;;5072176;28;20025;-81
2023/10/16 12:59:19;;;;;;;3.50;1.50;;;12.00;99.90;;;;;;5073457;28;20027;-81
2023/10/16 13:01:49;;;;;;;5.65;1.10;;;12.20;99.90;;;;;;5073300;28;20181;-80
2023/10/16 13:04:17;;;;;;;4.32;1.05;;;12.30;99.90;;;;;;5073033;28;20152;-80
2023/10/16 13:06:43;;;;;;;2.63;0.90;;;12.20;99.90;;;;;;5073420;28;20029;-80
2023/10/16 13:09:17;;;;;;;1.55;0.75;;;12.20;99.90;;;;;;5072603;28;20092;-79
2023/10/16 13:11:45;;;;;;;3.25;0.80;;;12.10;99.90;;;;;;5072424;28;20416;-81
2023/10/16 13:14:13;;;;;;;1.83;0.70;;;12.10;99.90;;;;;;5071229;28;20028;-81
2023/10/16 13:16:42;;;;;;;1.70;0.55;;;12.00;99.90;;;;;;5054473;28;20391;-82
2023/10/16 13:19:11;;;;;;;2.63;0.52;;;12.00;99.90;;;;;;5054655;28;20643;-80
2023/10/16 13:21:41;;;;;;;1.17;0.60;;;11.90;99.90;;;;;;5073778;28;20025;-79
2023/10/16 13:24:16;;;;;;;3.28;0.70;;;11.90;99.90;;;;;;5074994;28;20028;-81
2023/10/16 13:26:42;;;;;;;2.83;0.68;;;11.90;99.90;;;;;;5072241;28;20467;-79
2023/10/16 13:29:13;;;;;;;2.35;0.75;;;11.90;99.90;;;;;;5071928;28;20840;-81
2023/10/16 13:31:45;;;;;;;1.75;0.45;;;11.90;99.90;;;;;;5054379;28;20035;-81
2023/10/16 13:34:13;;;;;;;2.15;0.50;;;11.90;99.90;;;;;;5073525;28;20105;-79
2023/10/16 13:36:56;;;;;;;2.90;0.50;;;12.00;99.90;;;;;;5073167;28;20487;-79
2023/10/16 13:39:24;;;;;;;4.20;0.60;;;12.00;99.90;;;;;;5072271;28;20029;-79
2023/10/16 13:41:50;;;;;;;1.38;0.77;;;12.00;99.90;;;;;;5070588;28;20491;-82
2023/10/16 13:44:22;;;;;;;1.55;0.52;;;12.00;99.90;;;;;;5070711;28;20071;-81
2023/10/16 13:46:54;;;;;;;0.93;0.40;;;11.90;99.90;;;;;;5071420;28;20054;-80
2023/10/16 13:49:23;;;;;;;2.38;0.50;;;11.80;99.90;;;;;;5052988;28;20035;-80
2023/10/16 13:51:52;;;;;;;1.13;0.50;;;11.70;99.90;;;;;;5070429;28;20497;-80
2023/10/16 13:54:18;;;;;;;1.95;0.57;;;11.60;99.90;;;;;;5070367;28;20471;-79
2023/10/16 13:56:46;;;;;;;3.10;1.00;;;11.60;99.90;;;;;;5052895;28;20025;-81
2023/10/16 13:59:18;;;;;;;0.80;0.50;;;11.60;99.90;;;;;;5052076;28;20137;-81
2023/10/16 14:01:44;;;;;;;1.40;0.60;;;11.60;99.90;;;;;;5071101;28;20103;-81
2023/10/16 14:04:13;;;;;;;1.75;0.57;;;11.60;99.90;;;;;;5083658;28;20123;-79
2023/10/16 14:06:40;;;;;;;2.20;0.95;;;11.60;99.90;;;;;;5084988;28;20029;-78
2023/10/16 14:09:19;;;;;;;6.45;0.82;;;11.70;99.90;;;;;;5075209;28;20054;-79
2023/10/16 14:11:48;;;;;;;4.57;0.80;;;11.80;99.90;;;;;;5071380;28;20025;-79
2023/10/16 14:14:18;;;;;;;5.10;0.70;;;11.90;99.90;;;;;;5070617;28;20123;-80
2023/10/16 14:16:52;;;;;;;1.83;0.70;;;12.10;99.90;;;;;;5071563;28;20017;-78
2023/10/16 14:19:28;;;;;;;2.83;0.90;;;12.10;99.90;;;;;;5072930;28;20075;-77
2023/10/16 14:21:55;;;;;;;4.28;0.90;;;12.10;99.90;;;;;;5070206;28;20040;-79
2023/10/16 14:24:24;;;;;;;3.55;0.88;;;12.00;99.90;;;;;;5070072;28;20123;-77
2023/10/16 14:26:52;;;;;;;2.05;1.40;;;11.90;99.90;;;;;;5070623;28;20032;-77
2023/10/16 14:29:20;;;;;;;7.78;1.02;;;11.80;99.90;;;;;;5070101;28;20116;-76
2023/10/16 14:31:48;;;;;;;2.97;0.73;;;11.80;99.90;;;;;;5052528;28;20056;-77
2023/10/16 14:34:18;;;;;;;1.83;0.60;;;11.70;99.90;;;;;;5070197;28;20108;-78
2023/10/16 14:36:47;;;;;;;3.20;0.82;;;11.70;99.90;;;;;;5070526;28;20120;-77
2023/10/16 14:39:14;;;;;;;2.83;0.80;;;11.60;99.90;;;;;;5070047;28;20020;-79
2023/10/16 14:41:41;;;;;;;1.83;0.70;;;11.60;99.90;;;;;;5070280;28;20028;-79
2023/10/16 14:44:09;;;;;;;3.88;0.70;;;11.50;99.90;;;;;;5069701;28;20036;-78
2023/10/16 14:46:36;;;;;;;2.33;0.70;;;11.50;99.90;;;;;;5070307;28;20058;-77
2023/10/16 14:49:04;;;;;;;3.03;0.80;;;11.50;99.90;;;;;;5070203;28;20111;-78
2023/10/16 14:51:30;;;;;;;2.22;0.90;;;11.40;99.90;;;;;;5070943;28;20045;-78
2023/10/16 14:53:56;;;;;;;1.88;0.98;;;11.40;99.90;;;;;;5072273;28;20102;-81
2023/10/16 14:56:22;;;;;;;3.30;0.98;;;11.40;99.90;;;;;;5070531;28;20142;-79
2023/10/16 14:58:51;;;;;;;2.10;0.95;;;11.40;99.90;;;;;;5070354;28;20082;-79
2023/10/16 15:01:19;;;;;;;2.15;0.77;;;11.40;99.90;;;;;;5070396;28;20098;-79
2023/10/16 15:03:47;;;;;;;2.38;0.75;;;11.40;99.90;;;;;;5071188;28;20509;-78
2023/10/16 15:06:15;;;;;;;1.67;0.93;;;11.50;99.90;;;;;;5074535;28;20032;-79
2023/10/16 15:08:43;;;;;;;3.13;0.70;;;11.50;99.90;;;;;;5074952;28;20033;-79